createdAt,value
2018-07-03T00:00:11.314Z,11.36
2018-07-03T00:01:11.352Z,11.37
2018-07-03T00:02:11.386Z,11.35
2018-07-03T00:03:11.434Z,11.36
2018-07-03T00:04:11.504Z,11.32
2018-07-03T00:05:11.495Z,11.32
2018-07-03T00:06:11.533Z,11.33
2018-07-03T00:07:11.569Z,11.39
2018-07-03T00:08:11.604Z,11.35
2018-07-03T00:09:11.641Z,11.33
2018-07-03T00:10:11.677Z,11.35
2018-07-03T00:11:11.714Z,11.29
2018-07-03T00:12:11.748Z,11.35
2018-07-03T00:13:11.788Z,11.21
2018-07-03T00:14:11.822Z,11.21
2018-07-03T00:15:11.860Z,11.25
2018-07-03T00:16:12.260Z,11.24
2018-07-03T00:17:11.930Z,11.21
2018-07-03T00:18:11.966Z,11.24
2018-07-03T00:19:12.004Z,11.21
2018-07-03T00:20:12.042Z,11.14
2018-07-03T00:21:12.075Z,11.17
2018-07-03T00:22:12.162Z,11.10
2018-07-03T00:23:12.157Z,11.10
2018-07-03T00:24:12.181Z,11.14
2018-07-03T00:25:12.217Z,11.09
2018-07-03T00:26:12.253Z,11.09
2018-07-03T00:27:12.290Z,11.11
2018-07-03T00:28:12.326Z,11.10
2018-07-03T00:29:12.363Z,11.03
2018-07-03T00:30:12.400Z,11.00
2018-07-03T00:31:12.434Z,11.06
2018-07-03T00:32:12.478Z,11.06
2018-07-03T00:33:12.507Z,10.88
2018-07-03T00:34:12.543Z,10.86
2018-07-03T00:35:12.578Z,10.85
2018-07-03T00:36:12.615Z,10.78
2018-07-03T00:37:12.649Z,10.81
2018-07-03T00:38:12.686Z,10.76
2018-07-03T00:39:12.722Z,10.68
2018-07-03T00:40:12.755Z,10.67
2018-07-03T00:41:12.792Z,10.60
2018-07-03T00:42:12.831Z,10.61
2018-07-03T00:43:12.864Z,10.60
2018-07-03T00:44:12.902Z,10.53
2018-07-03T00:45:12.944Z,10.48
2018-07-03T00:46:12.976Z,10.52
2018-07-03T00:47:13.013Z,10.59
2018-07-03T00:48:13.043Z,10.44
2018-07-03T00:49:13.081Z,10.42
2018-07-03T00:50:13.118Z,10.42
2018-07-03T00:51:13.154Z,10.40
2018-07-03T00:52:13.187Z,10.51
2018-07-03T00:53:13.227Z,10.44
2018-07-03T00:54:13.260Z,10.55
2018-07-03T00:55:13.295Z,10.55
2018-07-03T00:56:13.333Z,10.55
2018-07-03T00:57:13.367Z,10.53
2018-07-03T00:58:13.404Z,10.59
2018-07-03T00:59:13.437Z,10.47
2018-07-03T01:00:13.477Z,10.53
2018-07-03T01:01:13.512Z,10.51
2018-07-03T01:02:13.544Z,10.45
2018-07-03T01:03:13.581Z,10.48
2018-07-03T01:04:13.616Z,10.41
2018-07-03T01:05:13.653Z,10.38
2018-07-03T01:06:13.688Z,10.40
2018-07-03T01:07:13.731Z,10.38
2018-07-03T01:08:13.758Z,10.33
2018-07-03T01:09:13.794Z,10.30
2018-07-03T01:10:13.831Z,10.25
2018-07-03T01:11:13.867Z,10.32
2018-07-03T01:12:13.902Z,10.22
2018-07-03T01:13:13.938Z,10.20
2018-07-03T01:14:13.973Z,10.17
2018-07-03T01:15:14.020Z,10.07
2018-07-03T01:16:14.046Z,10.08
2018-07-03T01:17:14.081Z,10.12
2018-07-03T01:18:14.116Z,10.08
2018-07-03T01:19:14.153Z,10.07
2018-07-03T01:20:14.186Z,10.05
2018-07-03T01:21:14.226Z,10.12
2018-07-03T01:22:14.258Z,10.12
2018-07-03T01:23:14.294Z,10.05
2018-07-03T01:24:14.330Z,10.12
2018-07-03T01:25:14.370Z,10.12
2018-07-03T01:26:14.402Z,9.93
2018-07-03T01:27:14.436Z,9.97
2018-07-03T01:28:14.471Z,10.05
2018-07-03T01:29:14.506Z,9.96
2018-07-03T01:30:14.544Z,9.90
2018-07-03T01:31:14.577Z,9.96
2018-07-03T01:32:14.611Z,9.94
2018-07-03T01:33:14.654Z,9.87
2018-07-03T01:34:14.686Z,9.81
2018-07-03T01:35:14.719Z,9.84
2018-07-03T01:36:14.761Z,9.79
2018-07-03T01:37:14.789Z,9.72
2018-07-03T01:38:14.824Z,9.61
2018-07-03T01:39:14.864Z,9.58
2018-07-03T01:40:14.896Z,9.64
2018-07-03T01:41:14.931Z,9.54
2018-07-03T01:42:14.965Z,9.51
2018-07-03T01:43:15.008Z,9.57
2018-07-03T01:44:15.037Z,9.57
2018-07-03T01:45:15.078Z,9.54
2018-07-03T01:46:15.109Z,9.54
2018-07-03T01:47:15.144Z,9.57
2018-07-03T01:48:15.181Z,9.53
2018-07-03T01:49:15.214Z,9.51
2018-07-03T01:50:15.250Z,9.54
2018-07-03T01:51:15.291Z,9.51
2018-07-03T01:52:15.321Z,9.36
2018-07-03T01:53:15.367Z,9.36
2018-07-03T01:54:15.391Z,9.36
2018-07-03T01:55:15.430Z,9.33
2018-07-03T01:56:15.462Z,9.23
2018-07-03T01:57:15.505Z,9.21
2018-07-03T01:58:15.543Z,9.24
2018-07-03T01:59:15.572Z,9.20
2018-07-03T02:00:15.610Z,9.24
2018-07-03T02:01:15.639Z,9.26
2018-07-03T02:02:15.673Z,9.15
2018-07-03T02:03:15.708Z,9.24
2018-07-03T02:04:15.744Z,9.20
2018-07-03T02:05:15.782Z,9.23
2018-07-03T02:06:15.814Z,9.17
2018-07-03T02:07:15.856Z,9.17
2018-07-03T02:08:15.888Z,9.11
2018-07-03T02:09:15.920Z,9.14
2018-07-03T02:10:15.953Z,9.11
2018-07-03T02:11:15.997Z,9.10
2018-07-03T02:12:16.023Z,9.08
2018-07-03T02:13:16.060Z,9.11
2018-07-03T02:14:16.095Z,9.05
2018-07-03T02:15:16.130Z,8.94
2018-07-03T02:16:16.164Z,8.98
2018-07-03T02:17:16.201Z,8.99
2018-07-03T02:18:16.236Z,8.96
2018-07-03T02:19:16.274Z,8.98
2018-07-03T02:20:16.307Z,8.92
2018-07-03T02:21:16.342Z,8.95
2018-07-03T02:22:16.378Z,9.01
2018-07-03T02:23:16.412Z,8.91
2018-07-03T02:24:16.447Z,8.98
2018-07-03T02:25:16.482Z,8.87
2018-07-03T02:26:16.516Z,8.95
2018-07-03T02:27:16.553Z,8.92
2018-07-03T02:28:16.587Z,8.95
2018-07-03T02:29:16.623Z,8.94
2018-07-03T02:30:16.664Z,8.84
2018-07-03T02:31:16.694Z,8.98
2018-07-03T02:32:16.728Z,8.91
2018-07-03T02:33:16.771Z,8.98
2018-07-03T02:34:16.799Z,8.87
2018-07-03T02:35:16.834Z,8.92
2018-07-03T02:36:16.869Z,8.83
2018-07-03T02:37:16.906Z,8.94
2018-07-03T02:38:16.936Z,8.80
2018-07-03T02:39:16.995Z,8.79
2018-07-03T02:40:17.012Z,8.84
2018-07-03T02:41:17.042Z,8.83
2018-07-03T02:42:17.080Z,8.81
2018-07-03T02:43:17.114Z,8.83
2018-07-03T02:44:17.146Z,8.77
2018-07-03T02:45:17.181Z,8.79
2018-07-03T02:46:17.217Z,8.84
2018-07-03T02:47:17.253Z,8.81
2018-07-03T02:48:17.289Z,8.84
2018-07-03T02:49:17.322Z,8.80
2018-07-03T02:50:17.358Z,8.76
2018-07-03T02:51:17.392Z,8.73
2018-07-03T02:52:17.427Z,8.73
2018-07-03T02:53:17.462Z,8.65
2018-07-03T02:54:17.497Z,8.70
2018-07-03T02:55:17.538Z,8.66
2018-07-03T02:56:17.568Z,8.63
2018-07-03T02:57:17.602Z,8.68
2018-07-03T02:58:17.643Z,8.70
2018-07-03T02:59:17.672Z,8.63
2018-07-03T03:00:17.719Z,8.63
2018-07-03T03:01:17.742Z,8.73
2018-07-03T03:02:17.777Z,8.73
2018-07-03T03:03:17.812Z,8.71
2018-07-03T03:04:17.896Z,8.66
2018-07-03T03:05:17.883Z,8.70
2018-07-03T03:06:17.918Z,8.65
2018-07-03T03:07:17.975Z,8.65
2018-07-03T03:08:18.087Z,8.63
2018-07-03T03:09:18.021Z,8.71
2018-07-03T03:10:18.056Z,8.68
2018-07-03T03:11:18.092Z,8.70
2018-07-03T03:12:18.126Z,8.73
2018-07-03T03:13:18.161Z,8.70
2018-07-03T03:14:18.198Z,8.70
2018-07-03T03:15:18.231Z,8.71
2018-07-03T03:16:18.265Z,8.70
2018-07-03T03:17:18.300Z,8.70
2018-07-03T03:18:18.335Z,8.66
2018-07-03T03:19:18.370Z,8.63
2018-07-03T03:20:18.403Z,8.65
2018-07-03T03:21:18.440Z,8.77
2018-07-03T03:22:18.475Z,8.74
2018-07-03T03:23:18.511Z,8.76
2018-07-03T03:24:18.545Z,8.84
2018-07-03T03:25:18.583Z,8.80
2018-07-03T03:26:18.616Z,8.84
2018-07-03T03:27:18.649Z,8.89
2018-07-03T03:28:18.684Z,8.87
2018-07-03T03:29:18.719Z,8.94
2018-07-03T03:30:18.753Z,8.94
2018-07-03T03:31:18.796Z,8.94
2018-07-03T03:32:18.829Z,8.95
2018-07-03T03:33:18.862Z,8.84
2018-07-03T03:34:18.903Z,8.80
2018-07-03T03:35:18.931Z,8.84
2018-07-03T03:36:18.965Z,8.81
2018-07-03T03:37:18.999Z,8.80
2018-07-03T03:38:19.037Z,8.86
2018-07-03T03:39:19.071Z,8.84
2018-07-03T03:40:19.103Z,8.89
2018-07-03T03:41:19.141Z,8.86
2018-07-03T03:42:19.174Z,8.95
2018-07-03T03:43:19.209Z,8.83
2018-07-03T03:44:19.251Z,8.84
2018-07-03T03:45:19.278Z,8.84
2018-07-03T03:46:19.314Z,8.80
2018-07-03T03:47:19.350Z,8.84
2018-07-03T03:48:19.383Z,8.80
2018-07-03T03:49:19.418Z,8.81
2018-07-03T03:50:19.463Z,8.81
2018-07-03T03:51:19.489Z,8.83
2018-07-03T03:52:19.522Z,8.83
2018-07-03T03:53:19.556Z,8.81
2018-07-03T03:54:19.591Z,8.86
2018-07-03T03:55:19.635Z,8.79
2018-07-03T03:56:19.670Z,8.80
2018-07-03T03:57:19.695Z,8.84
2018-07-03T03:58:19.734Z,8.81
2018-07-03T03:59:19.770Z,8.81
2018-07-03T04:00:19.800Z,8.87
2018-07-03T04:01:19.841Z,8.80
2018-07-03T04:02:19.871Z,8.80
2018-07-03T04:03:19.906Z,8.79
2018-07-03T04:04:19.942Z,8.79
2018-07-03T04:05:19.975Z,8.81
2018-07-03T04:06:20.023Z,8.87
2018-07-03T04:07:20.096Z,8.94
2018-07-03T04:08:20.081Z,8.87
2018-07-03T04:09:20.118Z,8.87
2018-07-03T04:10:20.152Z,8.95
2018-07-03T04:11:20.187Z,8.98
2018-07-03T04:12:20.220Z,9.01
2018-07-03T04:13:20.255Z,9.05
2018-07-03T04:14:20.292Z,9.10
2018-07-03T04:15:20.325Z,9.11
2018-07-03T04:16:20.364Z,9.11
2018-07-03T04:17:20.395Z,9.17
2018-07-03T04:18:20.431Z,9.18
2018-07-03T04:19:20.464Z,9.21
2018-07-03T04:20:20.498Z,9.20
2018-07-03T04:21:20.537Z,9.21
2018-07-03T04:22:20.570Z,9.24
2018-07-03T04:23:20.603Z,9.20
2018-07-03T04:24:20.638Z,9.17
2018-07-03T04:25:20.678Z,9.20
2018-07-03T04:26:20.709Z,9.21
2018-07-03T04:27:20.745Z,9.28
2018-07-03T04:28:20.779Z,9.18
2018-07-03T04:29:20.812Z,9.21
2018-07-03T04:30:20.849Z,9.31
2018-07-03T04:31:20.884Z,9.18
2018-07-03T04:32:20.919Z,9.35
2018-07-03T04:33:20.954Z,9.35
2018-07-03T04:34:20.993Z,9.35
2018-07-03T04:35:21.024Z,9.48
2018-07-03T04:36:21.059Z,9.47
2018-07-03T04:37:21.098Z,9.53
2018-07-03T04:38:21.128Z,9.54
2018-07-03T04:39:21.166Z,9.54
2018-07-03T04:40:21.198Z,9.56
2018-07-03T04:41:21.298Z,9.65
2018-07-03T04:42:21.273Z,9.61
2018-07-03T04:43:21.306Z,9.71
2018-07-03T04:44:21.339Z,9.72
2018-07-03T04:45:21.376Z,9.71
2018-07-03T04:46:21.410Z,9.84
2018-07-03T04:47:21.446Z,9.86
2018-07-03T04:48:21.479Z,9.86
2018-07-03T04:49:21.520Z,9.87
2018-07-03T04:50:21.551Z,9.91
2018-07-03T04:51:21.584Z,9.93
2018-07-03T04:52:21.621Z,9.94
2018-07-03T04:53:21.658Z,9.99
2018-07-03T04:54:21.695Z,10.08
2018-07-03T04:55:21.729Z,10.08
2018-07-03T04:56:21.761Z,10.18
2018-07-03T04:57:21.800Z,10.20
2018-07-03T04:58:21.830Z,10.17
2018-07-03T04:59:21.867Z,10.17
2018-07-03T05:00:21.902Z,10.22
2018-07-03T05:01:21.947Z,10.23
2018-07-03T05:02:21.973Z,10.36
2018-07-03T05:03:22.008Z,10.36
2018-07-03T05:04:22.043Z,10.38
2018-07-03T05:05:22.080Z,10.44
2018-07-03T05:06:22.115Z,10.53
2018-07-03T05:07:22.150Z,10.53
2018-07-03T05:08:22.196Z,10.63
2018-07-03T05:09:22.220Z,10.74
2018-07-03T05:10:22.256Z,10.79
2018-07-03T05:11:22.292Z,10.82
2018-07-03T05:12:22.329Z,10.92
2018-07-03T05:13:22.363Z,10.86
2018-07-03T05:14:22.450Z,10.92
2018-07-03T05:15:22.442Z,11.04
2018-07-03T05:16:22.472Z,11.04
2018-07-03T05:17:22.528Z,11.17
2018-07-03T05:18:22.542Z,11.32
2018-07-03T05:19:22.575Z,11.98
2018-07-03T05:20:22.611Z,12.59
2018-07-03T05:21:22.649Z,13.20
2018-07-03T05:22:22.696Z,13.69
2018-07-03T05:23:22.719Z,14.04
2018-07-03T05:24:22.755Z,14.25
2018-07-03T05:25:22.792Z,14.50
2018-07-03T05:26:22.825Z,14.65
2018-07-03T05:27:22.862Z,14.89
2018-07-03T05:28:22.898Z,15.01
2018-07-03T05:29:22.936Z,15.06
2018-07-03T05:30:22.971Z,14.81
2018-07-03T05:31:23.038Z,14.37
2018-07-03T05:32:23.041Z,13.97
2018-07-03T05:33:23.079Z,13.75
2018-07-03T05:34:23.114Z,13.64
2018-07-03T05:35:23.151Z,13.48
2018-07-03T05:36:23.189Z,13.30
2018-07-03T05:37:23.224Z,13.26
2018-07-03T05:38:23.262Z,13.29
2018-07-03T05:39:23.298Z,13.22
2018-07-03T05:40:23.336Z,13.26
2018-07-03T05:41:23.370Z,13.25
2018-07-03T05:42:23.407Z,13.33
2018-07-03T05:43:23.444Z,13.30
2018-07-03T05:44:23.481Z,13.39
2018-07-03T05:45:23.517Z,13.45
2018-07-03T05:46:23.556Z,13.42
2018-07-03T05:47:23.592Z,13.41
2018-07-03T05:48:23.629Z,13.57
2018-07-03T05:49:23.666Z,13.59
2018-07-03T05:50:23.703Z,13.63
2018-07-03T05:51:23.740Z,13.67
2018-07-03T05:52:23.776Z,13.67
2018-07-03T05:53:23.813Z,13.69
2018-07-03T05:54:23.851Z,13.75
2018-07-03T05:55:23.892Z,13.84
2018-07-03T05:56:24.047Z,13.79
2018-07-03T05:57:23.959Z,13.85
2018-07-03T05:58:23.996Z,13.87
2018-07-03T05:59:24.036Z,14.02
2018-07-03T06:00:24.077Z,14.03
2018-07-03T06:01:24.109Z,14.12
2018-07-03T06:02:24.146Z,14.17
2018-07-03T06:03:24.183Z,14.21
2018-07-03T06:04:24.219Z,14.29
2018-07-03T06:05:24.257Z,14.24
2018-07-03T06:06:24.292Z,14.33
2018-07-03T06:07:24.330Z,14.42
2018-07-03T06:08:24.367Z,14.52
2018-07-03T06:09:24.415Z,14.61
2018-07-03T06:10:24.445Z,14.60
2018-07-03T06:11:24.482Z,14.62
2018-07-03T06:12:24.515Z,14.77
2018-07-03T06:13:24.554Z,14.83
2018-07-03T06:14:24.677Z,14.99
2018-07-03T06:15:24.630Z,15.09
2018-07-03T06:16:24.728Z,15.02
2018-07-03T06:17:24.706Z,15.17
2018-07-03T06:18:24.743Z,15.16
2018-07-03T06:19:24.778Z,15.27
2018-07-03T06:20:24.821Z,15.36
2018-07-03T06:21:24.852Z,15.39
2018-07-03T06:22:24.894Z,15.54
2018-07-03T06:23:24.929Z,15.62
2018-07-03T06:24:24.967Z,15.69
2018-07-03T06:25:25.006Z,15.78
2018-07-03T06:26:25.044Z,15.68
2018-07-03T06:27:25.082Z,15.76
2018-07-03T06:28:25.120Z,15.75
2018-07-03T06:29:25.156Z,15.86
2018-07-03T06:30:25.194Z,15.96
2018-07-03T06:31:25.237Z,16.07
2018-07-03T06:32:25.269Z,16.07
2018-07-03T06:33:25.306Z,16.14
2018-07-03T06:34:25.345Z,16.14
2018-07-03T06:35:25.383Z,16.12
2018-07-03T06:36:25.684Z,16.28
2018-07-03T06:37:25.509Z,16.41
2018-07-03T06:38:25.503Z,16.45
2018-07-03T06:39:25.533Z,16.45
2018-07-03T06:40:25.570Z,16.46
2018-07-03T06:41:25.609Z,16.57
2018-07-03T06:42:25.647Z,16.61
2018-07-03T06:43:25.686Z,16.67
2018-07-03T06:44:25.722Z,16.81
2018-07-03T06:45:25.769Z,16.88
2018-07-03T06:46:25.799Z,16.96
2018-07-03T06:47:25.882Z,17.03
2018-07-03T06:48:25.876Z,17.04
2018-07-03T06:49:25.913Z,17.12
2018-07-03T06:50:25.952Z,17.18
2018-07-03T06:51:25.993Z,17.16
2018-07-03T06:52:26.030Z,17.19
2018-07-03T06:53:26.067Z,17.31
2018-07-03T06:54:26.111Z,17.22
2018-07-03T06:55:26.148Z,17.43
2018-07-03T06:56:26.183Z,17.49
2018-07-03T06:57:26.222Z,17.59
2018-07-03T06:58:26.261Z,17.52
2018-07-03T06:59:26.311Z,17.58
2018-07-03T07:00:26.334Z,17.59
2018-07-03T07:01:26.377Z,17.71
2018-07-03T07:02:26.418Z,17.72
2018-07-03T07:03:26.456Z,17.77
2018-07-03T07:04:26.489Z,17.84
2018-07-03T07:05:26.533Z,17.87
2018-07-03T07:06:26.568Z,17.95
2018-07-03T07:07:26.606Z,18.02
2018-07-03T07:08:26.674Z,18.17
2018-07-03T07:09:26.846Z,18.25
2018-07-03T07:10:26.722Z,18.25
2018-07-03T07:11:26.760Z,18.30
2018-07-03T07:12:26.801Z,18.29
2018-07-03T07:13:26.839Z,18.29
2018-07-03T07:14:26.880Z,18.41
2018-07-03T07:15:26.917Z,18.51
2018-07-03T07:16:26.980Z,18.60
2018-07-03T07:17:27.002Z,18.70
2018-07-03T07:18:27.034Z,18.73
2018-07-03T07:19:27.084Z,18.70
2018-07-03T07:20:27.127Z,18.82
2018-07-03T07:21:27.150Z,18.90
2018-07-03T07:22:27.191Z,18.94
2018-07-03T07:23:27.229Z,18.98
2018-07-03T07:24:27.268Z,19.10
2018-07-03T07:25:27.315Z,19.06
2018-07-03T07:26:27.345Z,19.10
2018-07-03T07:27:27.387Z,19.14
2018-07-03T07:28:27.425Z,19.32
2018-07-03T07:29:27.468Z,19.43
2018-07-03T07:30:27.514Z,19.54
2018-07-03T07:31:27.544Z,19.48
2018-07-03T07:32:27.600Z,19.50
2018-07-03T07:33:27.621Z,19.62
2018-07-03T07:34:27.662Z,19.63
2018-07-03T07:35:27.715Z,19.73
2018-07-03T07:36:27.739Z,19.78
2018-07-03T07:37:27.780Z,19.76
2018-07-03T07:38:27.821Z,19.80
2018-07-03T07:39:27.858Z,19.91
2018-07-03T07:40:27.899Z,19.94
2018-07-03T07:41:27.937Z,19.98
2018-07-03T07:42:27.979Z,20.05
2018-07-03T07:43:28.021Z,20.10
2018-07-03T07:44:28.068Z,20.13
2018-07-03T07:45:28.101Z,20.11
2018-07-03T07:47:28.176Z,20.33
2018-07-03T07:48:28.215Z,20.38
2018-07-03T07:49:28.257Z,20.48
2018-07-03T07:50:28.298Z,20.57
2018-07-03T07:51:28.335Z,20.57
2018-07-03T07:52:28.376Z,20.66
2018-07-03T07:53:28.416Z,20.67
2018-07-03T07:54:28.458Z,20.70
2018-07-03T07:55:28.496Z,20.80
2018-07-03T07:56:28.595Z,20.80
2018-07-03T07:57:28.575Z,20.89
2018-07-03T07:58:28.619Z,20.94
2018-07-03T07:59:28.660Z,21.04
2018-07-03T08:00:28.705Z,21.10
2018-07-03T08:01:28.739Z,21.17
2018-07-03T08:02:28.779Z,21.32
2018-07-03T08:03:28.819Z,21.28
2018-07-03T08:04:28.858Z,21.42
2018-07-03T08:05:28.899Z,21.43
2018-07-03T08:06:28.939Z,21.50
2018-07-03T08:07:28.980Z,21.54
2018-07-03T08:08:29.020Z,21.61
2018-07-03T08:09:29.060Z,21.64
2018-07-03T08:10:29.109Z,21.64
2018-07-03T08:11:29.307Z,21.69
2018-07-03T08:12:29.180Z,21.69
2018-07-03T08:13:29.227Z,21.86
2018-07-03T08:14:29.263Z,21.82
2018-07-03T08:15:29.305Z,21.92
2018-07-03T08:16:29.349Z,21.84
2018-07-03T08:17:29.394Z,22.05
2018-07-03T08:18:29.428Z,21.96
2018-07-03T08:19:29.466Z,22.03
2018-07-03T08:20:29.546Z,22.10
2018-07-03T08:21:29.545Z,22.22
2018-07-03T08:22:29.592Z,22.25
2018-07-03T08:23:29.630Z,22.36
2018-07-03T08:24:29.680Z,22.40
2018-07-03T08:25:29.713Z,22.51
2018-07-03T08:26:29.786Z,22.62
2018-07-03T08:27:29.794Z,22.70
2018-07-03T08:28:29.837Z,22.68
2018-07-03T08:29:29.877Z,22.68
2018-07-03T08:30:29.915Z,22.70
2018-07-03T08:31:29.957Z,22.82
2018-07-03T08:32:29.999Z,22.85
2018-07-03T08:33:30.040Z,22.91
2018-07-03T08:34:30.086Z,22.95
2018-07-03T08:35:30.123Z,22.91
2018-07-03T08:36:30.162Z,23.05
2018-07-03T08:37:30.211Z,23.07
2018-07-03T08:38:30.244Z,23.02
2018-07-03T08:39:30.286Z,23.05
2018-07-03T08:40:30.326Z,23.01
2018-07-03T08:41:30.369Z,23.04
2018-07-03T08:42:30.415Z,23.19
2018-07-03T08:43:30.451Z,23.25
2018-07-03T08:44:30.493Z,23.25
2018-07-03T08:45:30.533Z,23.36
2018-07-03T08:46:30.594Z,23.47
2018-07-03T08:47:30.616Z,23.50
2018-07-03T08:48:30.667Z,23.63
2018-07-03T08:49:30.699Z,23.68
2018-07-03T08:50:30.740Z,23.66
2018-07-03T08:51:30.786Z,23.69
2018-07-03T08:52:30.824Z,23.66
2018-07-03T08:53:30.867Z,23.68
2018-07-03T08:54:30.908Z,23.70
2018-07-03T08:55:30.949Z,23.66
2018-07-03T08:56:30.991Z,23.83
2018-07-03T08:57:31.033Z,23.73
2018-07-03T08:58:31.078Z,23.87
2018-07-03T08:59:31.117Z,23.80
2018-07-03T09:00:31.158Z,23.84
2018-07-03T09:01:31.203Z,23.95
2018-07-03T09:02:31.245Z,24.02
2018-07-03T09:03:31.283Z,24.05
2018-07-03T09:04:31.324Z,24.15
2018-07-03T09:05:31.367Z,24.12
2018-07-03T09:06:31.407Z,24.12
2018-07-03T09:07:31.451Z,24.21
2018-07-03T09:08:31.490Z,24.09
2018-07-03T09:09:31.533Z,24.09
2018-07-03T09:10:31.574Z,24.05
2018-07-03T09:11:31.672Z,23.83
2018-07-03T09:12:31.658Z,23.85
2018-07-03T09:13:31.699Z,23.87
2018-07-03T09:14:31.742Z,23.76
2018-07-03T09:15:31.786Z,23.80
2018-07-03T09:16:31.827Z,23.80
2018-07-03T09:17:31.868Z,23.78
2018-07-03T09:18:31.917Z,23.87
2018-07-03T09:19:31.953Z,23.93
2018-07-03T09:20:31.993Z,23.93
2018-07-03T09:21:32.036Z,24.06
2018-07-03T09:22:32.077Z,24.10
2018-07-03T09:23:32.128Z,24.22
2018-07-03T09:24:32.162Z,24.24
2018-07-03T09:25:32.207Z,24.21
2018-07-03T09:26:32.247Z,24.28
2018-07-03T09:27:32.290Z,24.27
2018-07-03T09:28:32.331Z,24.25
2018-07-03T09:29:32.374Z,24.30
2018-07-03T09:30:32.471Z,24.25
2018-07-03T09:31:32.456Z,24.22
2018-07-03T09:32:32.498Z,24.24
2018-07-03T09:33:32.539Z,24.30
2018-07-03T09:34:32.581Z,24.25
2018-07-03T09:35:32.624Z,24.21
2018-07-03T09:36:32.667Z,24.25
2018-07-03T09:37:32.708Z,24.22
2018-07-03T09:38:32.756Z,24.27
2018-07-03T09:39:32.793Z,24.39
2018-07-03T09:40:32.834Z,24.43
2018-07-03T09:41:32.878Z,24.40
2018-07-03T09:42:32.969Z,24.47
2018-07-03T09:43:32.966Z,24.53
2018-07-03T09:44:33.007Z,24.53
2018-07-03T09:45:33.046Z,24.55
2018-07-03T09:46:33.088Z,24.47
2018-07-03T09:47:33.131Z,24.50
2018-07-03T09:48:33.171Z,24.52
2018-07-03T09:49:33.215Z,24.53
2018-07-03T09:50:33.260Z,24.49
2018-07-03T09:51:33.300Z,24.46
2018-07-03T09:52:33.340Z,24.60
2018-07-03T09:53:33.384Z,24.49
2018-07-03T09:54:33.427Z,24.52
2018-07-03T09:55:33.522Z,24.53
2018-07-03T09:56:33.511Z,24.61
2018-07-03T09:57:33.557Z,24.55
2018-07-03T09:58:33.597Z,24.60
2018-07-03T09:59:33.639Z,24.61
2018-07-03T10:00:33.689Z,24.71
2018-07-03T10:01:33.720Z,24.68
2018-07-03T10:02:33.764Z,24.80
2018-07-03T10:03:33.810Z,24.80
2018-07-03T10:04:33.902Z,24.87
2018-07-03T10:05:33.892Z,24.93
2018-07-03T10:06:33.933Z,24.96
2018-07-03T10:07:33.978Z,24.99
2018-07-03T10:08:34.018Z,25.00
2018-07-03T10:09:34.061Z,25.05
2018-07-03T10:10:34.104Z,25.06
2018-07-03T10:11:34.148Z,25.24
2018-07-03T10:12:34.190Z,25.25
2018-07-03T10:13:34.231Z,25.30
2018-07-03T10:14:34.291Z,25.21
2018-07-03T10:15:34.318Z,25.27
2018-07-03T10:16:34.365Z,25.27
2018-07-03T10:17:34.410Z,25.17
2018-07-03T10:18:34.445Z,25.21
2018-07-03T10:19:34.491Z,25.08
2018-07-03T10:20:34.529Z,24.96
2018-07-03T10:21:34.580Z,24.85
2018-07-03T10:22:34.619Z,24.84
2018-07-03T10:23:34.667Z,25.02
2018-07-03T10:24:34.703Z,24.98
2018-07-03T10:25:34.796Z,24.96
2018-07-03T10:26:34.789Z,24.96
2018-07-03T10:27:34.840Z,25.09
2018-07-03T10:28:34.870Z,24.91
2018-07-03T10:29:34.915Z,24.99
2018-07-03T10:30:34.956Z,25.02
2018-07-03T10:31:34.999Z,25.03
2018-07-03T10:32:35.046Z,25.08
2018-07-03T10:33:35.084Z,25.08
2018-07-03T10:34:35.127Z,25.08
2018-07-03T10:35:35.168Z,25.02
2018-07-03T10:36:35.216Z,24.93
2018-07-03T10:37:35.256Z,24.98
2018-07-03T10:38:35.299Z,24.91
2018-07-03T10:39:35.348Z,24.91
2018-07-03T10:40:35.385Z,24.96
2018-07-03T10:41:35.425Z,24.87
2018-07-03T10:42:35.468Z,25.00
2018-07-03T10:43:35.510Z,25.00
2018-07-03T10:44:35.554Z,25.05
2018-07-03T10:45:35.596Z,25.03
2018-07-03T10:46:35.772Z,25.09
2018-07-03T10:47:35.683Z,25.10
2018-07-03T10:48:35.724Z,25.21
2018-07-03T10:49:35.767Z,25.27
2018-07-03T10:50:35.809Z,25.36
2018-07-03T10:51:35.853Z,25.30
2018-07-03T10:52:35.898Z,25.36
2018-07-03T10:53:35.937Z,25.43
2018-07-03T10:54:35.990Z,25.36
2018-07-03T10:55:36.027Z,25.51
2018-07-03T10:56:36.066Z,25.54
2018-07-03T10:57:36.108Z,25.35
2018-07-03T10:58:36.151Z,25.24
2018-07-03T10:59:36.207Z,25.21
2018-07-03T11:00:36.234Z,25.32
2018-07-03T11:01:36.278Z,25.25
2018-07-03T11:02:36.322Z,25.43
2018-07-03T11:03:36.364Z,25.50
2018-07-03T11:04:36.413Z,25.58
2018-07-03T11:05:36.500Z,25.57
2018-07-03T11:06:36.492Z,25.75
2018-07-03T11:07:36.537Z,25.77
2018-07-03T11:08:36.577Z,25.79
2018-07-03T11:09:36.621Z,25.72
2018-07-03T11:10:36.664Z,25.70
2018-07-03T11:11:36.708Z,25.70
2018-07-03T11:12:36.749Z,25.45
2018-07-03T11:13:36.793Z,25.51
2018-07-03T11:14:36.834Z,25.52
2018-07-03T11:15:36.878Z,25.57
2018-07-03T11:16:36.926Z,25.51
2018-07-03T11:17:36.965Z,25.58
2018-07-03T11:18:37.018Z,25.67
2018-07-03T11:19:37.118Z,25.62
2018-07-03T11:20:37.094Z,25.67
2018-07-03T11:21:37.137Z,25.67
2018-07-03T11:22:37.178Z,25.65
2018-07-03T11:23:37.222Z,25.69
2018-07-03T11:24:37.268Z,25.77
2018-07-03T11:25:37.306Z,25.83
2018-07-03T11:26:37.400Z,26.05
2018-07-03T11:27:37.393Z,25.97
2018-07-03T11:28:37.431Z,26.17
2018-07-03T11:29:37.479Z,26.10
2018-07-03T11:30:37.522Z,26.01
2018-07-03T11:31:37.562Z,26.10
2018-07-03T11:32:37.612Z,26.07
2018-07-03T11:33:37.659Z,26.07
2018-07-03T11:34:37.690Z,25.99
2018-07-03T11:35:37.734Z,25.95
2018-07-03T11:36:37.778Z,25.90
2018-07-03T11:37:37.847Z,25.90
2018-07-03T11:38:37.866Z,25.98
2018-07-03T11:39:37.905Z,25.91
2018-07-03T11:40:37.948Z,26.01
2018-07-03T11:41:37.992Z,26.10
2018-07-03T11:42:38.036Z,26.13
2018-07-03T11:43:38.079Z,26.12
2018-07-03T11:44:38.121Z,26.23
2018-07-03T11:45:38.171Z,26.13
2018-07-03T11:46:38.216Z,26.28
2018-07-03T11:47:38.250Z,26.28
2018-07-03T11:48:38.296Z,26.21
2018-07-03T11:49:38.437Z,26.23
2018-07-03T11:50:38.380Z,26.29
2018-07-03T11:51:38.421Z,26.30
2018-07-03T11:52:38.465Z,26.37
2018-07-03T11:53:38.548Z,26.40
2018-07-03T11:54:38.800Z,26.44
2018-07-03T11:55:38.594Z,26.51
2018-07-03T11:56:38.645Z,26.54
2018-07-03T11:57:38.683Z,26.51
2018-07-03T11:58:38.732Z,26.57
2018-07-03T11:59:38.766Z,26.52
2018-07-03T12:00:38.810Z,26.69
2018-07-03T12:01:38.857Z,26.67
2018-07-03T12:02:38.898Z,26.69
2018-07-03T12:03:38.948Z,26.82
2018-07-03T12:04:38.983Z,26.84
2018-07-03T12:05:39.027Z,26.81
2018-07-03T12:06:39.072Z,26.85
2018-07-03T12:07:39.113Z,26.66
2018-07-03T12:08:39.156Z,26.67
2018-07-03T12:09:39.211Z,26.58
2018-07-03T12:10:39.242Z,26.69
2018-07-03T12:11:39.289Z,26.50
2018-07-03T12:12:39.340Z,26.50
2018-07-03T12:13:39.383Z,26.62
2018-07-03T12:14:39.427Z,26.63
2018-07-03T12:15:39.460Z,26.65
2018-07-03T12:16:39.505Z,26.60
2018-07-03T12:17:39.547Z,26.69
2018-07-03T12:18:39.594Z,26.63
2018-07-03T12:19:39.699Z,26.67
2018-07-03T12:20:39.678Z,26.44
2018-07-03T12:21:39.721Z,26.54
2018-07-03T12:22:39.765Z,26.54
2018-07-03T12:23:39.810Z,26.52
2018-07-03T12:24:39.853Z,26.58
2018-07-03T12:25:39.893Z,26.57
2018-07-03T12:26:39.939Z,26.50
2018-07-03T12:27:39.983Z,26.65
2018-07-03T12:28:40.027Z,26.65
2018-07-03T12:29:40.073Z,26.75
2018-07-03T12:30:40.113Z,26.69
2018-07-03T12:31:40.158Z,26.60
2018-07-03T12:32:40.199Z,26.63
2018-07-03T12:33:40.242Z,26.66
2018-07-03T12:34:40.287Z,26.82
2018-07-03T12:35:40.335Z,26.92
2018-07-03T12:36:40.396Z,27.00
2018-07-03T12:37:40.417Z,27.06
2018-07-03T12:38:40.459Z,27.14
2018-07-03T12:39:40.506Z,27.21
2018-07-03T12:40:40.547Z,27.17
2018-07-03T12:41:40.590Z,27.17
2018-07-03T12:42:40.634Z,27.21
2018-07-03T12:43:40.679Z,27.17
2018-07-03T12:44:40.729Z,27.13
2018-07-03T12:45:40.766Z,27.14
2018-07-03T12:46:40.809Z,27.24
2018-07-03T12:47:40.854Z,27.22
2018-07-03T12:48:40.902Z,27.32
2018-07-03T12:49:40.977Z,27.32
2018-07-03T12:50:40.987Z,27.39
2018-07-03T12:51:41.026Z,27.39
2018-07-03T12:52:41.071Z,27.54
2018-07-03T12:53:41.122Z,27.62
2018-07-03T12:54:41.159Z,27.63
2018-07-03T12:55:41.206Z,27.75
2018-07-03T12:56:41.247Z,27.74
2018-07-03T12:57:41.290Z,27.78
2018-07-03T12:58:41.334Z,27.74
2018-07-03T12:59:41.382Z,27.78
2018-07-03T13:00:41.423Z,27.82